createdAt,value
2023-05-11T00:00:52.871Z,1.00
2023-05-11T00:03:19.622Z,1.10
2023-05-11T00:05:49.535Z,1.10
2023-05-11T00:08:17.269Z,1.50
2023-05-11T00:10:48.298Z,1.60
2023-05-11T00:13:15.177Z,1.60
2023-05-11T00:15:41.989Z,1.20
2023-05-11T00:18:08.729Z,1.55
2023-05-11T00:20:35.434Z,1.15
2023-05-11T00:23:02.537Z,0.80
2023-05-11T00:25:29.223Z,1.20
2023-05-11T00:27:56.041Z,1.60
2023-05-11T00:30:22.820Z,1.63
2023-05-11T00:32:54.004Z,1.45
2023-05-11T00:35:21.399Z,1.30
2023-05-11T00:37:48.306Z,1.38
2023-05-11T00:40:15.159Z,1.20
2023-05-11T00:42:42.026Z,1.05
2023-05-11T00:45:08.968Z,1.40
2023-05-11T00:47:35.686Z,1.85
2023-05-11T00:50:02.730Z,1.70
2023-05-11T00:52:30.068Z,1.83
2023-05-11T00:57:23.424Z,2.10
2023-05-11T00:59:50.281Z,1.60
2023-05-11T01:02:17.954Z,1.90
2023-05-11T01:04:45.462Z,1.30
2023-05-11T01:07:40.595Z,1.60
2023-05-11T01:10:38.236Z,1.23
2023-05-11T01:13:30.824Z,1.55
2023-05-11T01:15:58.741Z,1.40
2023-05-11T01:18:34.989Z,0.98
2023-05-11T01:21:09.482Z,1.17
2023-05-11T01:23:42.172Z,1.23
2023-05-11T01:26:13.924Z,1.33
2023-05-11T01:29:18.290Z,1.13
2023-05-11T01:31:47.747Z,1.35
2023-05-11T01:34:30.580Z,1.75
2023-05-11T01:37:21.702Z,1.77
2023-05-11T01:40:01.543Z,1.50
2023-05-11T01:42:38.397Z,1.30
2023-05-11T01:45:07.545Z,1.10
2023-05-11T01:47:37.240Z,0.65
2023-05-11T01:50:06.342Z,0.60
2023-05-11T01:52:35.390Z,0.82
2023-05-11T01:55:05.894Z,1.02
2023-05-11T01:57:33.390Z,1.20
2023-05-11T02:00:01.796Z,1.23
2023-05-11T02:02:29.853Z,0.93
2023-05-11T02:04:58.749Z,1.10
2023-05-11T02:07:27.895Z,1.55
2023-05-11T02:09:56.577Z,1.38
2023-05-11T02:12:25.231Z,1.60
2023-05-11T02:14:53.426Z,1.40
2023-05-11T02:17:22.584Z,1.35
2023-05-11T02:19:50.743Z,1.50
2023-05-11T02:22:20.423Z,1.40
2023-05-11T02:24:48.937Z,1.45
2023-05-11T02:27:15.673Z,1.33
2023-05-11T02:29:42.432Z,1.00
2023-05-11T02:32:17.960Z,1.58
2023-05-11T02:34:58.551Z,1.58
2023-05-11T02:37:27.744Z,1.27
2023-05-11T02:40:00.777Z,1.10
2023-05-11T02:42:30.990Z,1.20
2023-05-11T02:45:04.812Z,0.85
2023-05-11T02:47:36.646Z,0.70
2023-05-11T02:50:05.822Z,1.00
2023-05-11T02:52:43.207Z,0.82
2023-05-11T02:55:11.566Z,1.52
2023-05-11T02:57:39.116Z,1.40
2023-05-11T03:00:08.482Z,1.48
2023-05-11T03:02:35.526Z,1.60
2023-05-11T03:05:02.611Z,1.85
2023-05-11T03:07:29.759Z,1.50
2023-05-11T03:09:56.521Z,1.50
2023-05-11T03:12:23.663Z,0.95
2023-05-11T03:14:51.571Z,1.40
2023-05-11T03:17:21.058Z,1.30
2023-05-11T03:19:48.356Z,1.13
2023-05-11T03:22:16.385Z,1.10
2023-05-11T03:24:44.491Z,1.20
2023-05-11T03:27:11.857Z,1.10
2023-05-11T03:29:42.927Z,1.08
2023-05-11T03:32:09.757Z,0.90
2023-05-11T03:34:42.348Z,1.10
2023-05-11T03:37:14.643Z,0.93
2023-05-11T03:39:45.534Z,0.90
2023-05-11T03:42:15.012Z,0.80
2023-05-11T03:44:46.052Z,1.33
2023-05-11T03:47:14.225Z,1.10
2023-05-11T03:49:42.196Z,1.00
2023-05-11T03:52:09.400Z,1.33
2023-05-11T03:54:36.748Z,1.15
2023-05-11T03:59:30.067Z,1.48
2023-05-11T04:01:58.716Z,2.00
2023-05-11T04:04:30.604Z,1.92
2023-05-11T04:06:59.264Z,2.03
2023-05-11T04:09:26.250Z,1.70
2023-05-11T04:11:53.077Z,1.75
2023-05-11T04:14:20.659Z,1.83
2023-05-11T04:16:47.807Z,1.55
2023-05-11T04:19:14.676Z,1.20
2023-05-11T04:21:41.377Z,1.70
2023-05-11T04:24:09.168Z,1.40
2023-05-11T04:26:35.853Z,1.38
2023-05-11T04:29:03.745Z,1.20
2023-05-11T04:33:57.924Z,1.30
2023-05-11T04:36:24.972Z,0.93
2023-05-11T04:38:53.137Z,0.77
2023-05-11T04:41:20.730Z,1.30
2023-05-11T04:43:47.553Z,1.23
2023-05-11T04:46:14.330Z,1.50
2023-05-11T04:48:41.801Z,0.98
2023-05-11T04:51:09.358Z,1.17
2023-05-11T04:53:42.297Z,2.00
2023-05-11T04:56:09.254Z,0.70
2023-05-11T04:58:36.004Z,0.73
2023-05-11T05:01:02.994Z,0.80
2023-05-11T05:03:30.908Z,0.80
2023-05-11T05:05:57.638Z,0.65
2023-05-11T05:08:24.307Z,0.60
2023-05-11T05:10:51.022Z,0.70
2023-05-11T05:13:17.784Z,0.32
2023-05-11T05:15:45.151Z,0.80
2023-05-11T05:18:12.130Z,0.40
2023-05-11T05:20:39.692Z,1.20
2023-05-11T05:23:06.511Z,0.95
2023-05-11T05:25:34.018Z,0.47
2023-05-11T05:28:00.982Z,0.50
2023-05-11T05:30:27.970Z,0.40
2023-05-11T05:32:55.025Z,0.40
2023-05-11T05:35:22.127Z,0.63
2023-05-11T05:37:48.924Z,0.40
2023-05-11T05:42:47.628Z,0.43
2023-05-11T05:45:19.120Z,0.40
2023-05-11T05:47:46.318Z,0.93
2023-05-11T05:50:14.058Z,0.40
2023-05-11T05:52:42.054Z,0.32
2023-05-11T05:55:09.594Z,0.47
2023-05-11T05:57:37.403Z,0.30
2023-05-11T06:00:04.976Z,0.50
2023-05-11T06:02:39.696Z,0.40
2023-05-11T06:05:08.812Z,0.57
2023-05-11T06:07:35.803Z,0.40
2023-05-11T06:10:02.780Z,0.70
2023-05-11T06:12:31.326Z,0.60
2023-05-11T06:14:58.165Z,0.38
2023-05-11T06:17:25.420Z,0.30
2023-05-11T06:19:52.277Z,0.50
2023-05-11T06:22:23.032Z,0.50
2023-05-11T06:24:50.548Z,0.60
2023-05-11T06:27:18.528Z,0.68
2023-05-11T06:29:45.784Z,0.88
2023-05-11T06:32:12.578Z,0.40
2023-05-11T06:34:39.489Z,0.60
2023-05-11T06:37:06.596Z,0.57
2023-05-11T06:39:36.302Z,0.30
2023-05-11T06:42:06.453Z,0.30
2023-05-11T06:44:34.203Z,0.30
2023-05-11T06:49:27.826Z,0.40
2023-05-11T06:51:54.549Z,0.45
2023-05-11T06:54:22.592Z,0.60
2023-05-11T06:56:49.287Z,0.73
2023-05-11T06:59:15.945Z,0.35
2023-05-11T07:01:42.948Z,2.08
2023-05-11T07:04:09.686Z,0.63
2023-05-11T07:06:36.524Z,0.35
2023-05-11T07:09:03.707Z,1.27
2023-05-11T07:11:33.129Z,1.40
2023-05-11T07:13:59.790Z,0.40
2023-05-11T07:16:26.715Z,0.40
2023-05-11T07:18:53.606Z,0.30
2023-05-11T07:21:22.133Z,0.30
2023-05-11T07:23:48.894Z,0.50
2023-05-11T07:26:15.637Z,0.32
2023-05-11T07:28:42.291Z,0.43
2023-05-11T07:31:09.026Z,1.08
2023-05-11T07:33:38.337Z,0.32
2023-05-11T07:36:06.124Z,0.70
2023-05-11T07:38:33.319Z,0.47
2023-05-11T07:41:00.038Z,0.90
2023-05-11T07:43:26.792Z,0.50
2023-05-11T07:45:53.527Z,0.30
2023-05-11T07:48:20.800Z,0.70
2023-05-11T07:50:49.478Z,2.05
2023-05-11T07:53:16.606Z,0.40
2023-05-11T07:55:43.279Z,0.40
2023-05-11T07:58:10.018Z,0.50
2023-05-11T08:00:36.818Z,0.38
2023-05-11T08:03:03.544Z,0.60
2023-05-11T08:05:33.041Z,0.50
2023-05-11T08:07:59.742Z,0.30
2023-05-11T08:10:26.422Z,0.40
2023-05-11T08:12:53.150Z,0.30
2023-05-11T08:15:20.038Z,0.60
2023-05-11T08:17:46.934Z,0.20
2023-05-11T08:20:13.739Z,0.22
2023-05-11T08:22:40.435Z,0.60
2023-05-11T08:25:07.804Z,0.30
2023-05-11T08:30:04.012Z,0.50
2023-05-11T08:32:30.747Z,0.20
2023-05-11T08:34:57.924Z,0.28
2023-05-11T08:37:24.634Z,0.20
2023-05-11T08:39:51.494Z,0.70
2023-05-11T08:42:19.992Z,0.30
2023-05-11T08:44:49.206Z,0.40
2023-05-11T08:49:45.826Z,0.20
2023-05-11T08:52:16.188Z,0.25
2023-05-11T08:54:43.095Z,0.25
2023-05-11T08:57:11.325Z,0.20
2023-05-11T08:59:38.983Z,0.35
2023-05-11T09:02:07.300Z,0.20
2023-05-11T09:04:36.347Z,0.40
2023-05-11T09:07:03.474Z,0.30
2023-05-11T09:09:30.930Z,0.30
2023-05-11T09:12:00.038Z,0.22
2023-05-11T09:14:27.639Z,0.30
2023-05-11T09:16:54.633Z,0.40
2023-05-11T09:19:21.868Z,0.70
2023-05-11T09:21:48.589Z,0.50
2023-05-11T09:24:15.278Z,0.40
2023-05-11T09:26:41.947Z,0.43
2023-05-11T09:29:08.697Z,0.63
2023-05-11T09:31:45.438Z,0.68
2023-05-11T09:34:16.638Z,0.60
2023-05-11T09:36:44.961Z,0.50
2023-05-11T09:39:16.182Z,0.40
2023-05-11T09:41:43.421Z,0.52
2023-05-11T09:44:12.585Z,0.55
2023-05-11T09:46:40.770Z,0.30
2023-05-11T09:49:08.712Z,0.35
2023-05-11T09:51:37.624Z,0.47
2023-05-11T09:54:19.373Z,0.50
2023-05-11T09:56:48.014Z,0.40
2023-05-11T09:59:37.656Z,0.50
2023-05-11T10:02:24.844Z,0.70
2023-05-11T10:04:53.436Z,0.40
2023-05-11T10:07:31.495Z,0.30
2023-05-11T10:10:06.582Z,0.30
2023-05-11T10:12:38.056Z,0.52
2023-05-11T10:15:09.805Z,0.60
2023-05-11T10:17:37.400Z,0.52
2023-05-11T10:20:06.565Z,0.50
2023-05-11T10:22:33.671Z,1.05
2023-05-11T10:25:01.488Z,0.52
2023-05-11T10:27:28.690Z,0.52
2023-05-11T10:32:22.711Z,0.60
2023-05-11T10:34:52.509Z,0.63
2023-05-11T10:37:21.088Z,0.20
2023-05-11T10:39:50.527Z,0.30
2023-05-11T10:42:38.297Z,0.50
2023-05-11T10:45:41.857Z,0.57
2023-05-11T10:48:20.760Z,0.43
2023-05-11T10:51:13.778Z,0.30
2023-05-11T10:54:17.921Z,0.50
2023-05-11T10:57:11.234Z,0.40
2023-05-11T10:59:53.865Z,0.50
2023-05-11T11:02:21.960Z,0.50
2023-05-11T11:04:50.747Z,0.30
2023-05-11T11:07:19.460Z,0.60
2023-05-11T11:09:56.667Z,0.40
2023-05-11T11:12:26.465Z,0.95
2023-05-11T11:14:58.528Z,0.57
2023-05-11T11:17:28.869Z,0.50
2023-05-11T11:19:55.725Z,0.38
2023-05-11T11:22:43.867Z,0.80
2023-05-11T11:25:15.484Z,0.93
2023-05-11T11:27:44.927Z,0.77
2023-05-11T11:30:28.435Z,0.75
2023-05-11T11:33:16.156Z,0.70
2023-05-11T11:35:43.145Z,0.70
2023-05-11T11:38:20.439Z,0.77
2023-05-11T11:40:52.448Z,0.60
2023-05-11T11:43:21.447Z,0.80
2023-05-11T11:46:00.818Z,0.60
2023-05-11T11:48:38.406Z,0.50
2023-05-11T11:51:08.918Z,0.90
2023-05-11T11:53:39.433Z,0.88
2023-05-11T11:56:08.980Z,0.45
2023-05-11T11:58:41.787Z,0.82
2023-05-11T12:01:20.950Z,0.98
2023-05-11T12:04:11.123Z,0.80
2023-05-11T12:06:44.399Z,0.90
2023-05-11T12:09:11.245Z,0.80
2023-05-11T12:11:38.449Z,0.80
2023-05-11T12:14:05.998Z,0.90
2023-05-11T12:16:32.698Z,0.80
2023-05-11T12:19:02.196Z,0.70
2023-05-11T12:21:33.721Z,0.75
2023-05-11T12:24:05.644Z,0.70
2023-05-11T12:26:34.198Z,0.60
2023-05-11T12:29:12.882Z,0.70
2023-05-11T12:31:41.432Z,0.90
2023-05-11T12:34:21.874Z,0.88
2023-05-11T12:36:53.167Z,0.50
2023-05-11T12:39:22.234Z,0.60
2023-05-11T12:41:50.309Z,0.60
2023-05-11T12:44:18.369Z,0.60
2023-05-11T12:46:46.933Z,0.47
2023-05-11T12:49:24.656Z,0.60
2023-05-11T12:52:07.660Z,0.80
2023-05-11T12:54:39.221Z,0.60
2023-05-11T12:57:07.732Z,1.52
2023-05-11T12:59:35.499Z,0.80
2023-05-11T13:02:20.909Z,0.65
2023-05-11T13:04:48.432Z,0.60
2023-05-11T13:07:24.447Z,0.50
2023-05-11T13:10:00.892Z,0.77
2023-05-11T13:12:31.713Z,1.05
2023-05-11T13:15:11.784Z,1.10
2023-05-11T13:17:40.092Z,0.90
2023-05-11T13:20:20.873Z,0.73
2023-05-11T13:22:48.696Z,1.00
2023-05-11T13:25:17.451Z,0.90
2023-05-11T13:27:44.666Z,0.77
2023-05-11T13:30:11.904Z,1.20
2023-05-11T13:32:39.449Z,0.80
2023-05-11T13:35:07.057Z,0.50
2023-05-11T13:37:33.761Z,0.43
2023-05-11T13:40:00.799Z,0.77
2023-05-11T13:42:28.514Z,0.65
2023-05-11T13:44:55.253Z,0.50
2023-05-11T13:47:22.149Z,0.60
2023-05-11T13:49:48.935Z,0.60
2023-05-11T13:52:15.819Z,0.32
2023-05-11T13:54:42.568Z,0.40
2023-05-11T13:57:09.336Z,0.60
2023-05-11T13:59:36.060Z,0.45
2023-05-11T14:02:02.872Z,0.47
2023-05-11T14:04:29.599Z,0.50
2023-05-11T14:06:56.527Z,0.52
2023-05-11T14:09:23.611Z,0.50
2023-05-11T14:11:50.729Z,0.60
2023-05-11T14:14:17.672Z,0.55
2023-05-11T14:16:44.400Z,1.30
2023-05-11T14:19:11.291Z,1.13
2023-05-11T14:21:38.117Z,1.35
2023-05-11T14:24:12.213Z,1.50
2023-05-11T14:26:40.191Z,1.50
2023-05-11T14:31:35.683Z,0.70
2023-05-11T14:34:03.868Z,1.00
2023-05-11T14:36:31.992Z,0.70
2023-05-11T14:38:58.809Z,0.90
2023-05-11T14:41:25.630Z,0.80
2023-05-11T14:43:52.467Z,0.82
2023-05-11T14:46:19.572Z,0.65
2023-05-11T14:48:46.392Z,0.77
2023-05-11T14:51:13.121Z,0.75
2023-05-11T14:53:39.905Z,0.60
2023-05-11T14:56:07.092Z,1.00
2023-05-11T14:58:33.755Z,1.45
2023-05-11T15:01:00.767Z,1.13
2023-05-11T15:03:27.844Z,1.15
2023-05-11T15:05:54.586Z,1.63
2023-05-11T15:08:29.802Z,2.67
2023-05-11T15:10:58.030Z,2.53
2023-05-11T15:13:25.043Z,1.52
2023-05-11T15:15:52.039Z,0.80
2023-05-11T15:18:19.187Z,1.20
2023-05-11T15:20:46.352Z,1.00
2023-05-11T15:23:16.588Z,1.33
2023-05-11T15:25:44.613Z,1.48
2023-05-11T15:28:11.729Z,1.52
2023-05-11T15:30:38.621Z,1.50
2023-05-11T15:33:05.360Z,1.13
2023-05-11T15:35:34.355Z,2.03
2023-05-11T15:38:01.083Z,1.60
2023-05-11T15:40:28.938Z,1.45
2023-05-11T15:42:57.931Z,1.05
2023-05-11T15:45:25.705Z,1.50
2023-05-11T15:47:52.551Z,2.47
2023-05-11T15:50:19.465Z,4.68
2023-05-11T15:52:46.359Z,3.40
2023-05-11T15:55:13.004Z,2.78
2023-05-11T15:57:39.668Z,2.75
2023-05-11T16:00:09.730Z,0.80
2023-05-11T16:02:36.706Z,1.10
2023-05-11T16:05:03.548Z,2.20
2023-05-11T16:07:30.417Z,1.38
2023-05-11T16:09:57.134Z,1.33
2023-05-11T16:12:23.824Z,0.93
2023-05-11T16:14:50.479Z,1.58
2023-05-11T16:17:17.305Z,1.55
2023-05-11T16:19:44.191Z,1.08
2023-05-11T16:22:10.846Z,0.98
2023-05-11T16:24:37.488Z,0.80
2023-05-11T16:27:04.540Z,0.70
2023-05-11T16:29:31.236Z,0.70
2023-05-11T16:31:57.960Z,0.70
2023-05-11T16:34:24.626Z,1.13
2023-05-11T16:36:51.265Z,1.10
2023-05-11T16:39:18.082Z,0.90
2023-05-11T16:41:44.795Z,1.40
2023-05-11T16:44:11.453Z,1.10
2023-05-11T16:46:38.250Z,1.20
2023-05-11T16:49:04.909Z,1.00
2023-05-11T16:51:31.579Z,1.42
2023-05-11T16:53:58.308Z,1.48
2023-05-11T16:56:25.037Z,1.48
2023-05-11T16:58:52.562Z,1.58
2023-05-11T17:01:19.411Z,1.77
2023-05-11T17:03:46.414Z,1.73
2023-05-11T17:06:14.637Z,1.75
2023-05-11T17:08:41.873Z,1.67
2023-05-11T17:11:08.659Z,2.17
2023-05-11T17:13:35.278Z,1.80
2023-05-11T17:16:02.279Z,2.88
2023-05-11T17:18:29.170Z,3.90
2023-05-11T17:20:56.145Z,3.53
2023-05-11T17:23:25.471Z,2.72
2023-05-11T17:25:52.254Z,2.72
2023-05-11T17:28:18.895Z,2.22
2023-05-11T17:32:44.327Z,1.38
2023-05-11T17:35:11.193Z,1.77
2023-05-11T17:37:37.890Z,1.50
2023-05-11T17:40:05.519Z,1.08
2023-05-11T17:42:32.187Z,0.95
2023-05-11T17:44:58.865Z,1.08
2023-05-11T17:47:26.024Z,0.90
2023-05-11T17:49:52.789Z,1.10
2023-05-11T17:52:19.487Z,0.90
2023-05-11T17:54:46.240Z,0.80
2023-05-11T17:57:12.936Z,0.98
2023-05-11T17:59:39.618Z,15.50
2023-05-11T18:02:07.458Z,12.07
2023-05-11T18:04:34.125Z,18.13
2023-05-11T18:07:00.830Z,7.25
2023-05-11T18:09:27.466Z,20.95
2023-05-11T18:11:54.141Z,10.95
2023-05-11T18:14:20.946Z,5.18
2023-05-11T18:16:49.305Z,6.30
2023-05-11T18:19:16.150Z,4.20
2023-05-11T18:21:42.880Z,1.92
2023-05-11T18:24:09.688Z,2.97
2023-05-11T18:26:36.701Z,7.22
2023-05-11T18:29:03.418Z,5.00
2023-05-11T18:31:30.900Z,6.40
2023-05-11T18:33:57.704Z,5.78
2023-05-11T18:36:24.479Z,5.78
2023-05-11T18:38:51.620Z,7.57
2023-05-11T18:41:18.335Z,14.15
2023-05-11T18:43:45.375Z,15.20
2023-05-11T18:46:12.120Z,11.27
2023-05-11T18:48:39.010Z,22.50
2023-05-11T18:51:06.326Z,25.95
2023-05-11T18:56:00.122Z,14.55
2023-05-11T18:58:26.969Z,12.05
2023-05-11T19:00:53.819Z,6.38
2023-05-11T19:03:22.055Z,5.63
2023-05-11T19:05:51.072Z,4.72
2023-05-11T19:08:18.496Z,4.30
2023-05-11T19:10:46.978Z,6.28
2023-05-11T19:13:13.941Z,58.92
2023-05-11T19:15:40.634Z,24.85
2023-05-11T19:18:07.910Z,8.70
2023-05-11T19:23:01.613Z,8.13
2023-05-11T19:25:28.411Z,7.15
2023-05-11T19:27:57.121Z,6.38
2023-05-11T19:30:24.663Z,5.82
2023-05-11T19:32:51.500Z,5.35
2023-05-11T19:35:19.058Z,4.53
2023-05-11T19:37:50.464Z,4.72
2023-05-11T19:42:46.771Z,6.28
2023-05-11T19:45:14.926Z,4.00
2023-05-11T19:47:41.718Z,4.13
2023-05-11T19:50:10.881Z,4.65
2023-05-11T19:52:38.602Z,4.55
2023-05-11T19:55:05.741Z,4.65
2023-05-11T19:57:37.030Z,4.97
2023-05-11T20:00:07.947Z,5.25
2023-05-11T20:02:35.689Z,4.13
2023-05-11T20:05:04.059Z,4.03
2023-05-11T20:07:31.931Z,3.35
2023-05-11T20:09:58.677Z,3.22
2023-05-11T20:12:25.393Z,4.20
2023-05-11T20:14:52.905Z,3.78
2023-05-11T20:17:19.591Z,3.97
2023-05-11T20:19:46.308Z,3.95
2023-05-11T20:22:13.406Z,3.72
2023-05-11T20:24:40.111Z,4.00
2023-05-11T20:27:09.524Z,4.05
2023-05-11T20:29:36.461Z,4.18
2023-05-11T20:32:03.354Z,4.68
2023-05-11T20:34:30.174Z,4.38
2023-05-11T20:36:56.936Z,3.90
2023-05-11T20:39:23.670Z,4.28
2023-05-11T20:41:50.518Z,4.55
2023-05-11T20:44:17.595Z,5.30
2023-05-11T20:46:45.897Z,6.53
2023-05-11T20:49:16.766Z,4.97
2023-05-11T20:51:51.346Z,5.50
2023-05-11T20:54:18.171Z,6.35
2023-05-11T20:56:44.999Z,5.18
2023-05-11T21:00:03.582Z,4.75
2023-05-11T21:01:59.133Z,4.70
2023-05-11T21:04:26.075Z,4.10
2023-05-11T21:06:55.765Z,4.18
2023-05-11T21:09:22.413Z,4.28
2023-05-11T21:11:49.109Z,5.40
2023-05-11T21:14:15.861Z,5.97
2023-05-11T21:16:42.746Z,4.95
2023-05-11T21:19:09.589Z,4.55
2023-05-11T21:21:37.827Z,4.28
2023-05-11T21:24:06.060Z,5.03
2023-05-11T21:26:32.769Z,4.43
2023-05-11T21:28:59.572Z,5.05
2023-05-11T21:31:26.386Z,5.72
2023-05-11T21:33:53.122Z,5.30
2023-05-11T21:36:19.833Z,4.55
2023-05-11T21:38:46.499Z,4.50
2023-05-11T21:41:13.152Z,4.18
2023-05-11T21:43:39.882Z,4.07
2023-05-11T21:46:06.617Z,4.95
2023-05-11T21:48:33.514Z,7.25
2023-05-11T21:51:00.287Z,4.90
2023-05-11T21:53:27.351Z,5.40
2023-05-11T21:55:53.998Z,6.22
2023-05-11T21:58:20.902Z,6.90
2023-05-11T22:00:47.632Z,7.40
2023-05-11T22:03:14.362Z,7.88
2023-05-11T22:05:41.079Z,8.00
2023-05-11T22:08:14.759Z,9.02
2023-05-11T22:10:43.138Z,9.70
2023-05-11T22:13:10.258Z,9.75
2023-05-11T22:15:37.157Z,9.93
2023-05-11T22:18:04.915Z,9.95
2023-05-11T22:20:31.919Z,10.25
2023-05-11T22:22:59.456Z,10.93
2023-05-11T22:25:26.686Z,9.93
2023-05-11T22:27:53.674Z,9.23
2023-05-11T22:30:20.895Z,10.43
2023-05-11T22:32:47.851Z,8.77
2023-05-11T22:35:14.595Z,9.40
2023-05-11T22:37:41.321Z,10.73
2023-05-11T22:40:08.762Z,10.40
2023-05-11T22:42:35.674Z,9.80
2023-05-11T22:45:02.451Z,10.60
2023-05-11T22:47:29.361Z,9.55
2023-05-11T22:49:56.252Z,9.35
2023-05-11T22:52:23.067Z,9.80
2023-05-11T22:54:58.480Z,9.25
2023-05-11T22:57:28.681Z,8.95
2023-05-11T22:59:55.418Z,9.32
2023-05-11T23:02:22.938Z,9.10
2023-05-11T23:04:53.140Z,9.43
2023-05-11T23:07:19.977Z,10.25
2023-05-11T23:09:46.885Z,9.07
2023-05-11T23:12:13.553Z,9.32
2023-05-11T23:14:40.259Z,9.63
2023-05-11T23:17:06.962Z,9.43
2023-05-11T23:19:33.788Z,10.27
2023-05-11T23:22:00.780Z,10.02
2023-05-11T23:24:28.828Z,9.45
2023-05-11T23:26:55.898Z,9.57
2023-05-11T23:29:22.715Z,9.68
2023-05-11T23:31:50.920Z,9.73
2023-05-11T23:34:17.931Z,8.60
2023-05-11T23:36:44.712Z,9.13
2023-05-11T23:39:11.429Z,8.40
2023-05-11T23:41:38.434Z,9.52
2023-05-11T23:44:05.281Z,7.75
2023-05-11T23:46:32.517Z,7.30
2023-05-11T23:48:59.293Z,7.07
2023-05-11T23:51:26.002Z,5.90
2023-05-11T23:53:52.814Z,4.72
2023-05-11T23:56:19.499Z,4.10
2023-05-11T23:58:46.318Z,6.30
